createdAt,value
2023-01-28T00:00:45.954Z,101789.25
2023-01-28T00:04:49.757Z,101793.22
2023-01-28T00:08:53.732Z,101779.28
2023-01-28T00:12:57.911Z,101793.94
2023-01-28T00:17:03.413Z,101798.03
2023-01-28T00:21:10.187Z,101793.47
2023-01-28T00:25:14.450Z,101783.50
2023-01-28T00:29:18.757Z,101776.91
2023-01-28T00:33:24.316Z,101772.38
2023-01-28T00:37:28.289Z,101775.81
2023-01-28T00:41:32.450Z,101780.78
2023-01-28T00:45:36.446Z,101780.88
2023-01-28T00:49:41.873Z,101783.03
2023-01-28T00:53:46.339Z,101778.78
2023-01-28T00:57:50.605Z,101782.31
2023-01-28T01:01:54.566Z,101782.03
2023-01-28T01:06:00.891Z,101775.63
2023-01-28T01:10:04.444Z,101769.78
2023-01-28T01:14:08.365Z,101773.72
2023-01-28T01:18:12.514Z,101787.25
2023-01-28T01:22:17.159Z,101791.66
2023-01-28T01:26:21.068Z,101778.41
2023-01-28T01:30:25.150Z,101784.59
2023-01-28T01:34:29.249Z,101785.53
2023-01-28T01:38:35.874Z,101792.19
2023-01-28T01:42:39.846Z,101783.38
2023-01-28T01:46:50.122Z,101784.34
2023-01-28T01:50:59.106Z,101783.09
2023-01-28T01:55:08.824Z,101789.75
2023-01-28T01:59:16.598Z,101797.75
2023-01-28T02:03:27.844Z,101798.47
2023-01-28T02:07:31.926Z,101793.34
2023-01-28T02:11:36.780Z,101788.78
2023-01-28T02:15:40.948Z,101798.66
2023-01-28T02:19:50.682Z,101805.59
2023-01-28T02:24:11.602Z,101798.63
2023-01-28T02:28:26.845Z,101803.69
2023-01-28T02:32:39.270Z,101801.69
2023-01-28T02:36:50.373Z,101794.84
2023-01-28T02:41:06.740Z,101799.81
2023-01-28T02:45:21.963Z,101814.44
2023-01-28T02:49:30.743Z,101808.75
2023-01-28T02:53:44.061Z,101801.84
2023-01-28T02:57:59.994Z,101807.31
2023-01-28T03:02:14.119Z,101808.09
2023-01-28T03:06:21.895Z,101812.28
2023-01-28T03:10:28.297Z,101819.09
2023-01-28T03:14:51.617Z,101812.81
2023-01-28T03:19:14.010Z,101814.31
2023-01-28T03:23:41.384Z,101813.94
2023-01-28T03:28:10.277Z,101811.97
2023-01-28T03:32:32.375Z,101810.72
2023-01-28T03:36:51.366Z,101821.34
2023-01-28T03:41:13.904Z,101807.03
2023-01-28T03:45:18.474Z,101813.50
2023-01-28T03:49:24.696Z,101815.25
2023-01-28T03:53:30.158Z,101811.09
2023-01-28T03:57:35.133Z,101833.56
2023-01-28T04:01:39.503Z,101822.63
2023-01-28T04:05:44.634Z,101828.16
2023-01-28T04:09:50.728Z,101824.38
2023-01-28T04:14:04.035Z,101824.63
2023-01-28T04:18:27.573Z,101825.34
2023-01-28T04:22:34.067Z,101838.25
2023-01-28T04:26:39.762Z,101835.41
2023-01-28T04:30:43.951Z,101832.00
2023-01-28T04:35:02.627Z,101836.19
2023-01-28T04:39:44.966Z,101844.16
2023-01-28T04:43:59.844Z,101844.91
2023-01-28T04:48:27.181Z,101847.69
2023-01-28T04:52:57.159Z,101838.13
2023-01-28T04:57:16.987Z,101835.34
2023-01-28T05:01:22.077Z,101838.88
2023-01-28T05:05:26.733Z,101836.72
2023-01-28T05:09:34.854Z,101841.38
2023-01-28T05:13:40.115Z,101832.28
2023-01-28T05:17:47.176Z,101835.97
2023-01-28T05:21:53.610Z,101836.34
2023-01-28T05:26:09.088Z,101835.75
2023-01-28T05:30:13.659Z,101846.28
2023-01-28T05:34:19.281Z,101835.75
2023-01-28T05:38:23.261Z,101832.78
2023-01-28T05:42:27.792Z,101840.88
2023-01-28T05:46:45.676Z,101854.13
2023-01-28T05:51:22.654Z,101852.91
2023-01-28T05:55:31.712Z,101855.59
2023-01-28T05:59:35.877Z,101866.50
2023-01-28T06:03:40.171Z,101865.28
2023-01-28T06:07:49.919Z,101862.34
2023-01-28T06:11:54.729Z,101854.38
2023-01-28T06:16:00.339Z,101850.94
2023-01-28T06:20:24.831Z,101853.88
2023-01-28T06:24:30.307Z,101860.38
2023-01-28T06:28:34.326Z,101857.56
2023-01-28T06:32:38.452Z,101855.72
2023-01-28T06:36:42.474Z,101860.50
2023-01-28T06:40:53.281Z,101867.13
2023-01-28T06:44:57.475Z,101861.34
2023-01-28T06:49:00.802Z,101872.63
2023-01-28T06:53:04.640Z,101869.81
2023-01-28T06:57:10.222Z,101866.16
2023-01-28T07:01:14.860Z,101876.31
2023-01-28T07:05:18.716Z,101867.63
2023-01-28T07:09:22.289Z,101876.31
2023-01-28T07:13:27.033Z,101868.34
2023-01-28T07:17:30.352Z,101866.63
2023-01-28T07:21:34.596Z,101868.59
2023-01-28T07:25:38.669Z,101863.94
2023-01-28T07:29:44.285Z,101867.72
2023-01-28T07:33:48.356Z,101862.47
2023-01-28T07:37:56.173Z,101861.25
2023-01-28T07:42:00.141Z,101870.91
2023-01-28T07:46:15.641Z,101868.34
2023-01-28T07:50:18.899Z,101872.53
2023-01-28T07:54:23.040Z,101870.56
2023-01-28T07:58:26.156Z,101866.78
2023-01-28T08:02:30.545Z,101867.59
2023-01-28T08:06:37.791Z,101876.09
2023-01-28T08:10:41.512Z,101891.66
2023-01-28T08:14:44.543Z,101908.56
2023-01-28T08:18:48.936Z,101924.88
2023-01-28T08:22:51.971Z,101930.16
2023-01-28T08:26:54.993Z,101915.56
2023-01-28T08:31:01.077Z,101916.44
2023-01-28T08:35:07.800Z,101921.44
2023-01-28T08:39:10.819Z,101921.09
2023-01-28T08:43:14.242Z,101930.66
2023-01-28T08:47:17.259Z,101926.75
2023-01-28T08:51:21.667Z,101939.25
2023-01-28T08:55:25.103Z,101952.00
2023-01-28T08:59:28.199Z,101958.59
2023-01-28T09:03:31.258Z,101953.72
2023-01-28T09:07:37.189Z,101953.47
2023-01-28T09:11:40.195Z,101965.97
2023-01-28T09:15:44.035Z,101981.50
2023-01-28T09:19:47.130Z,101982.16
2023-01-28T09:23:51.899Z,101979.44
2023-01-28T09:27:55.274Z,101985.59
2023-01-28T09:31:58.458Z,101988.06
2023-01-28T09:36:01.959Z,101990.84
2023-01-28T09:40:08.982Z,102000.31
2023-01-28T09:44:28.916Z,102002.53
2023-01-28T09:48:38.285Z,101994.06
2023-01-28T09:52:42.540Z,102007.16
2023-01-28T09:56:50.710Z,102007.91
2023-01-28T10:01:00.686Z,102010.28
2023-01-28T10:05:18.027Z,101990.75
2023-01-28T10:09:30.739Z,101996.38
2023-01-28T10:13:46.662Z,101990.38
2023-01-28T10:17:53.603Z,101997.13
2023-01-28T10:22:04.681Z,101991.72
2023-01-28T10:26:18.186Z,101980.19
2023-01-28T10:30:25.601Z,101974.06
2023-01-28T10:34:28.796Z,101970.50
2023-01-28T10:38:32.856Z,101966.69
2023-01-28T10:42:37.875Z,101972.53
2023-01-28T10:46:46.414Z,101987.75
2023-01-28T10:50:54.936Z,101977.91
2023-01-28T10:55:02.254Z,101996.63
2023-01-28T10:59:07.788Z,101988.13
2023-01-28T11:03:19.450Z,102002.28
2023-01-28T11:07:23.024Z,101993.91
2023-01-28T11:11:27.675Z,102003.50
2023-01-28T11:15:30.798Z,102007.69
2023-01-28T11:19:37.798Z,102012.34
2023-01-28T11:23:55.963Z,102022.91
2023-01-28T11:28:03.843Z,102023.59
2023-01-28T11:32:17.695Z,102017.50
2023-01-28T11:36:25.320Z,102003.13
2023-01-28T11:40:29.003Z,101996.63
2023-01-28T11:44:32.716Z,101997.59
2023-01-28T11:48:47.066Z,101997.84
2023-01-28T11:53:07.430Z,101988.06
2023-01-28T11:57:23.663Z,101992.94
2023-01-28T12:01:34.974Z,102008.16
2023-01-28T12:05:49.903Z,101998.94
2023-01-28T12:10:01.996Z,101998.56
2023-01-28T12:14:15.663Z,101997.38
2023-01-28T12:18:32.474Z,101985.47
2023-01-28T12:23:00.923Z,101976.75
2023-01-28T12:27:17.910Z,101972.59
2023-01-28T12:31:38.632Z,101960.94
2023-01-28T12:35:53.589Z,101956.78
2023-01-28T12:40:09.909Z,101937.88
2023-01-28T12:44:21.794Z,101936.75
2023-01-28T12:48:31.753Z,101948.69
2023-01-28T12:52:40.979Z,101918.97
2023-01-28T12:56:48.950Z,101903.44
2023-01-28T13:01:01.108Z,101884.94
2023-01-28T13:05:12.139Z,101868.97
2023-01-28T13:09:18.881Z,101855.16
2023-01-28T13:13:28.941Z,101861.72
2023-01-28T13:17:33.915Z,101884.25
2023-01-28T13:21:48.697Z,101887.59
2023-01-28T13:25:54.308Z,101906.38
2023-01-28T13:30:06.838Z,101903.28
2023-01-28T13:34:29.722Z,101903.75
2023-01-28T13:38:34.196Z,101917.25
2023-01-28T13:42:37.317Z,101924.63
2023-01-28T13:46:40.414Z,101929.84
2023-01-28T13:50:45.617Z,101929.47
2023-01-28T13:54:54.344Z,101915.44
2023-01-28T13:59:21.769Z,101915.63
2023-01-28T14:03:51.150Z,101930.13
2023-01-28T14:08:33.850Z,101921.97
2023-01-28T14:12:54.775Z,101930.63
2023-01-28T14:17:01.546Z,101934.06
2023-01-28T14:21:12.496Z,101929.13
2023-01-28T14:25:24.827Z,101922.53
2023-01-28T14:29:51.336Z,101906.81
2023-01-28T14:33:54.912Z,101895.13
2023-01-28T14:38:00.438Z,101900.09
2023-01-28T14:42:05.644Z,101885.03
2023-01-28T14:46:23.976Z,101874.63
2023-01-28T14:51:00.973Z,101883.66
2023-01-28T14:55:19.699Z,101881.34
2023-01-28T14:59:27.774Z,101868.94
2023-01-28T15:03:31.929Z,101860.97
2023-01-28T15:07:35.109Z,101875.50
2023-01-28T15:11:43.492Z,101875.47
2023-01-28T15:15:50.859Z,101880.22
2023-01-28T15:19:57.006Z,101878.38
2023-01-28T15:24:03.282Z,101882.00
2023-01-28T15:28:06.909Z,101892.81
2023-01-28T15:32:26.436Z,101896.63
2023-01-28T15:36:30.468Z,101906.81
2023-01-28T15:40:43.031Z,101905.94
2023-01-28T15:44:48.101Z,101915.19
2023-01-28T15:49:00.336Z,101919.44
2023-01-28T15:53:03.402Z,101916.88
2023-01-28T15:57:11.788Z,101941.44
2023-01-28T16:01:20.656Z,101956.19
2023-01-28T16:05:29.422Z,101944.44
2023-01-28T16:09:35.161Z,101948.34
2023-01-28T16:13:44.445Z,101960.81
2023-01-28T16:17:51.207Z,101965.09
2023-01-28T16:21:55.628Z,101987.63
2023-01-28T16:26:02.842Z,101998.72
2023-01-28T16:30:07.100Z,102010.53
2023-01-28T16:34:11.735Z,102014.63
2023-01-28T16:38:17.839Z,102027.50
2023-01-28T16:42:21.278Z,102020.63
2023-01-28T16:46:27.940Z,102021.72
2023-01-28T16:50:32.414Z,102018.91
2023-01-28T16:54:37.168Z,102031.91
2023-01-28T16:58:40.218Z,102030.59
2023-01-28T17:02:43.235Z,102025.75
2023-01-28T17:06:46.533Z,102024.53
2023-01-28T17:10:55.261Z,102014.41
2023-01-28T17:14:58.298Z,102026.59
2023-01-28T17:19:01.347Z,102021.94
2023-01-28T17:23:07.392Z,102032.88
2023-01-28T17:27:11.865Z,102035.47
2023-01-28T17:31:15.736Z,102033.28
2023-01-28T17:35:19.138Z,102029.38
2023-01-28T17:39:22.542Z,102012.25
2023-01-28T17:43:27.036Z,102024.78
2023-01-28T17:47:31.053Z,102023.13
2023-01-28T17:51:34.262Z,102020.72
2023-01-28T17:55:37.974Z,102022.28
2023-01-28T17:59:42.471Z,102052.34
2023-01-28T18:03:45.835Z,102049.09
2023-01-28T18:07:50.344Z,102068.56
2023-01-28T18:11:53.445Z,102073.22
2023-01-28T18:15:57.842Z,102076.88
2023-01-28T18:20:00.969Z,102083.56
2023-01-28T18:24:05.335Z,102084.72
2023-01-28T18:28:08.471Z,102092.06
2023-01-28T18:32:12.785Z,102092.91
2023-01-28T18:36:16.723Z,102100.78
2023-01-28T18:40:19.936Z,102096.19
2023-01-28T18:44:24.551Z,102095.59
2023-01-28T18:48:30.615Z,102110.34
2023-01-28T18:52:33.685Z,102117.63
2023-01-28T18:56:36.701Z,102118.38
2023-01-28T19:00:40.311Z,102108.03
2023-01-28T19:04:44.673Z,102113.75
2023-01-28T19:08:52.920Z,102105.13
2023-01-28T19:12:56.304Z,102120.75
2023-01-28T19:16:59.369Z,102118.53
2023-01-28T19:21:05.969Z,102126.75
2023-01-28T19:25:10.257Z,102129.38
2023-01-28T19:29:15.971Z,102116.63
2023-01-28T19:33:19.228Z,102121.88
2023-01-28T19:37:23.875Z,102119.75
2023-01-28T19:41:27.082Z,102112.44
2023-01-28T19:45:30.102Z,102111.16
2023-01-28T19:49:33.227Z,102107.63
2023-01-28T19:53:38.604Z,102104.31
2023-01-28T19:57:42.803Z,102128.00
2023-01-28T20:01:45.837Z,102120.38
2023-01-28T20:05:48.919Z,102132.22
2023-01-28T20:09:53.289Z,102132.09
2023-01-28T20:13:56.974Z,102132.84
2023-01-28T20:17:59.997Z,102136.31
2023-01-28T20:22:03.113Z,102131.97
2023-01-28T20:26:07.528Z,102132.34
2023-01-28T20:30:12.010Z,102127.25
2023-01-28T20:34:18.390Z,102128.28
2023-01-28T20:38:22.016Z,102115.59
2023-01-28T20:42:26.469Z,102113.09
2023-01-28T20:46:31.967Z,102108.16
2023-01-28T20:50:35.878Z,102111.44
2023-01-28T20:54:38.954Z,102107.81
2023-01-28T20:58:43.750Z,102106.69
2023-01-28T21:02:46.941Z,102098.59
2023-01-28T21:06:50.006Z,102108.38
2023-01-28T21:10:53.052Z,102108.66
2023-01-28T21:14:57.582Z,102086.03
2023-01-28T21:19:00.712Z,102091.94
2023-01-28T21:23:03.794Z,102091.47
2023-01-28T21:27:06.843Z,102086.44
2023-01-28T21:31:12.936Z,102081.75
2023-01-28T21:35:16.222Z,102081.75
2023-01-28T21:39:19.370Z,102075.56
2023-01-28T21:43:22.422Z,102068.47
2023-01-28T21:47:26.844Z,102068.13
2023-01-28T21:51:38.115Z,102073.75
2023-01-28T21:55:41.500Z,102053.22
2023-01-28T21:59:44.539Z,102065.72
2023-01-28T22:03:48.998Z,102066.88
2023-01-28T22:07:52.043Z,102067.63
2023-01-28T22:11:56.902Z,102070.56
2023-01-28T22:16:00.088Z,102078.34
2023-01-28T22:20:04.911Z,102076.34
2023-01-28T22:24:10.161Z,102083.31
2023-01-28T22:28:13.185Z,102090.22
2023-01-28T22:32:16.221Z,102082.38
2023-01-28T22:36:20.698Z,102071.94
2023-01-28T22:40:24.078Z,102085.56
2023-01-28T22:44:27.384Z,102087.72
2023-01-28T22:48:30.995Z,102084.09
2023-01-28T22:52:35.355Z,102084.78
2023-01-28T22:56:38.457Z,102084.16
2023-01-28T23:00:41.508Z,102086.22
2023-01-28T23:04:45.790Z,102089.38
2023-01-28T23:08:51.820Z,102089.72
2023-01-28T23:12:54.835Z,102090.91
2023-01-28T23:17:15.357Z,102091.28
2023-01-28T23:21:38.271Z,102082.47
2023-01-28T23:25:42.658Z,102080.03
2023-01-28T23:29:46.555Z,102070.41
2023-01-28T23:33:49.842Z,102065.75
2023-01-28T23:37:53.878Z,102065.03
2023-01-28T23:41:59.225Z,102058.81
2023-01-28T23:46:03.118Z,102056.41
2023-01-28T23:50:07.547Z,102054.84
2023-01-28T23:54:10.817Z,102051.91
2023-01-28T23:58:15.163Z,102034.50
